createdAt,value
2022-10-02T00:02:04.508Z,11.40
2022-10-02T00:04:39.626Z,11.40
2022-10-02T00:07:10.553Z,11.40
2022-10-02T00:09:49.662Z,11.40
2022-10-02T00:12:20.713Z,11.40
2022-10-02T00:14:53.775Z,11.40
2022-10-02T00:17:33.874Z,11.40
2022-10-02T00:20:01.782Z,11.40
2022-10-02T00:22:40.814Z,11.40
2022-10-02T00:25:17.824Z,11.40
2022-10-02T00:28:00.027Z,11.40
2022-10-02T00:30:33.244Z,11.40
2022-10-02T00:33:21.055Z,11.40
2022-10-02T00:36:08.795Z,11.30
2022-10-02T00:38:55.139Z,11.40
2022-10-02T00:41:51.829Z,11.30
2022-10-02T00:44:48.377Z,11.30
2022-10-02T00:47:27.752Z,11.30
2022-10-02T00:50:02.959Z,11.30
2022-10-02T00:53:07.749Z,11.30
2022-10-02T00:55:53.735Z,11.30
2022-10-02T00:58:51.730Z,11.30
2022-10-02T01:01:24.059Z,11.30
2022-10-02T01:03:56.988Z,11.30
2022-10-02T01:06:27.594Z,11.30
2022-10-02T01:08:56.098Z,11.20
2022-10-02T01:11:24.838Z,11.20
2022-10-02T01:13:52.748Z,11.20
2022-10-02T01:16:20.706Z,11.30
2022-10-02T01:18:48.359Z,11.20
2022-10-02T01:21:49.491Z,11.20
2022-10-02T01:24:25.596Z,11.20
2022-10-02T01:26:53.058Z,11.20
2022-10-02T01:29:20.588Z,11.20
2022-10-02T01:31:47.892Z,11.20
2022-10-02T01:34:15.530Z,11.20
2022-10-02T01:36:44.162Z,11.20
2022-10-02T01:39:11.748Z,11.20
2022-10-02T01:41:43.832Z,11.20
2022-10-02T01:44:13.118Z,11.20
2022-10-02T01:47:13.331Z,11.20
2022-10-02T01:49:55.858Z,11.20
2022-10-02T01:52:30.462Z,11.20
2022-10-02T01:55:07.766Z,11.20
2022-10-02T01:58:08.612Z,11.20
2022-10-02T02:01:11.791Z,11.20
2022-10-02T02:04:04.316Z,11.20
2022-10-02T02:06:59.819Z,11.20
2022-10-02T02:09:40.150Z,11.20
2022-10-02T02:12:19.738Z,11.20
2022-10-02T02:14:51.698Z,11.20
2022-10-02T02:17:53.035Z,11.30
2022-10-02T02:20:32.491Z,11.30
2022-10-02T02:23:07.002Z,11.30
2022-10-02T02:25:41.252Z,11.30
2022-10-02T02:28:13.280Z,11.30
2022-10-02T02:30:44.369Z,11.30
2022-10-02T02:33:37.244Z,11.30
2022-10-02T02:36:11.387Z,11.30
2022-10-02T02:38:51.317Z,11.30
2022-10-02T02:41:26.845Z,11.30
2022-10-02T02:44:07.277Z,11.30
2022-10-02T02:47:00.991Z,11.30
2022-10-02T02:49:32.470Z,11.40
2022-10-02T02:52:03.651Z,11.40
2022-10-02T02:54:43.320Z,11.40
2022-10-02T02:57:12.498Z,11.40
2022-10-02T02:59:44.717Z,11.40
2022-10-02T03:02:12.343Z,11.40
2022-10-02T03:04:39.853Z,11.40
2022-10-02T03:07:15.483Z,11.40
2022-10-02T03:09:51.127Z,11.40
2022-10-02T03:12:33.398Z,11.40
2022-10-02T03:15:19.089Z,11.40
2022-10-02T03:17:49.638Z,11.40
2022-10-02T03:20:21.576Z,11.30
2022-10-02T03:23:06.325Z,11.40
2022-10-02T03:26:03.707Z,11.40
2022-10-02T03:28:54.870Z,11.40
2022-10-02T03:31:26.805Z,11.40
2022-10-02T03:33:55.760Z,11.40
2022-10-02T03:36:24.976Z,11.40
2022-10-02T03:39:19.928Z,11.40
2022-10-02T03:41:43.884Z,11.30
2022-10-02T03:44:11.227Z,11.40
2022-10-02T03:46:38.896Z,11.40
2022-10-02T03:49:06.720Z,11.40
2022-10-02T03:51:34.123Z,11.40
2022-10-02T03:54:01.693Z,11.30
2022-10-02T03:56:46.727Z,11.30
2022-10-02T03:59:29.460Z,11.20
2022-10-02T04:02:00.359Z,11.20
2022-10-02T04:04:36.296Z,11.20
2022-10-02T04:07:07.511Z,11.20
2022-10-02T04:09:39.828Z,11.10
2022-10-02T04:12:34.897Z,11.10
2022-10-02T04:15:36.932Z,11.30
2022-10-02T04:18:08.909Z,11.20
2022-10-02T04:20:53.004Z,11.20
2022-10-02T04:23:47.693Z,11.20
2022-10-02T04:26:23.422Z,11.20
2022-10-02T04:29:16.211Z,12.40
2022-10-02T04:31:45.101Z,11.50
2022-10-02T04:34:14.034Z,11.10
2022-10-02T04:36:53.371Z,11.10
2022-10-02T04:39:54.294Z,11.00
2022-10-02T04:42:44.663Z,11.00
2022-10-02T04:45:40.578Z,11.10
2022-10-02T04:48:22.934Z,11.10
2022-10-02T04:51:09.247Z,11.20
2022-10-02T04:53:58.072Z,11.20
2022-10-02T04:56:38.746Z,11.20
2022-10-02T04:59:29.883Z,11.20
2022-10-02T05:02:27.901Z,11.20
2022-10-02T05:05:02.822Z,11.10
2022-10-02T05:07:57.285Z,11.70
2022-10-02T05:10:59.865Z,11.00
2022-10-02T05:13:32.902Z,10.90
2022-10-02T05:16:09.166Z,10.90
2022-10-02T05:18:42.564Z,10.90
2022-10-02T05:21:27.508Z,10.90
2022-10-02T05:24:23.709Z,10.90
2022-10-02T05:27:18.798Z,10.90
2022-10-02T05:29:53.573Z,10.80
2022-10-02T05:32:34.065Z,10.80
2022-10-02T05:35:29.698Z,10.80
2022-10-02T05:38:22.791Z,10.80
2022-10-02T05:41:16.837Z,10.80
2022-10-02T05:43:57.621Z,10.90
2022-10-02T05:46:29.378Z,10.80
2022-10-02T05:49:25.617Z,10.80
2022-10-02T05:51:59.846Z,10.80
2022-10-02T05:55:14.895Z,10.80
2022-10-02T05:57:55.254Z,10.90
2022-10-02T06:00:38.008Z,11.00
2022-10-02T06:03:15.570Z,11.10
2022-10-02T06:06:05.845Z,11.20
2022-10-02T06:08:41.470Z,11.30
2022-10-02T06:11:14.967Z,11.30
2022-10-02T06:13:57.869Z,11.40
2022-10-02T06:16:46.943Z,11.50
2022-10-02T06:19:32.128Z,11.50
2022-10-02T06:22:19.044Z,11.60
2022-10-02T06:24:59.226Z,12.00
2022-10-02T06:27:29.821Z,12.50
2022-10-02T06:30:06.469Z,13.10
2022-10-02T06:32:48.865Z,13.70
2022-10-02T06:35:20.631Z,14.20
2022-10-02T06:38:04.353Z,14.80
2022-10-02T06:40:45.885Z,14.40
2022-10-02T06:43:52.109Z,14.00
2022-10-02T06:46:40.112Z,13.10
2022-10-02T06:49:13.543Z,13.00
2022-10-02T06:51:59.828Z,13.10
2022-10-02T06:54:42.108Z,13.20
2022-10-02T06:57:24.780Z,12.90
2022-10-02T07:00:05.981Z,13.10
2022-10-02T07:02:52.254Z,13.00
2022-10-02T07:05:29.310Z,13.10
2022-10-02T07:08:11.378Z,13.20
2022-10-02T07:10:43.658Z,13.30
2022-10-02T07:13:26.099Z,13.30
2022-10-02T07:16:24.632Z,13.40
2022-10-02T07:19:14.166Z,13.40
2022-10-02T07:22:32.488Z,13.30
2022-10-02T07:25:18.169Z,13.40
2022-10-02T07:28:10.953Z,13.30
2022-10-02T07:30:54.881Z,13.10
2022-10-02T07:33:40.567Z,13.00
2022-10-02T07:36:21.338Z,13.00
2022-10-02T07:39:00.722Z,12.90
2022-10-02T07:42:00.843Z,12.80
2022-10-02T07:44:40.226Z,12.80
2022-10-02T07:47:35.777Z,12.70
2022-10-02T07:50:45.695Z,12.70
2022-10-02T07:53:27.150Z,12.50
2022-10-02T07:55:56.270Z,12.40
2022-10-02T07:58:58.916Z,12.40
2022-10-02T08:01:32.284Z,12.50
2022-10-02T08:04:10.175Z,12.50
2022-10-02T08:06:38.252Z,12.50
2022-10-02T08:09:23.498Z,12.60
2022-10-02T08:12:13.953Z,12.70
2022-10-02T08:14:45.454Z,12.80
2022-10-02T08:17:39.826Z,12.80
2022-10-02T08:20:38.569Z,12.80
2022-10-02T08:23:23.651Z,12.90
2022-10-02T08:26:14.496Z,12.90
2022-10-02T08:28:50.627Z,12.80
2022-10-02T08:31:18.865Z,12.80
2022-10-02T08:33:46.055Z,12.90
2022-10-02T08:36:40.869Z,13.30
2022-10-02T08:39:19.840Z,12.90
2022-10-02T08:42:14.332Z,12.80
2022-10-02T08:45:20.559Z,13.00
2022-10-02T08:48:23.426Z,13.10
2022-10-02T08:50:59.974Z,13.50
2022-10-02T08:54:05.201Z,14.40
2022-10-02T08:56:45.095Z,14.80
2022-10-02T08:59:37.435Z,14.60
2022-10-02T09:02:09.458Z,14.60
2022-10-02T09:05:07.095Z,14.30
2022-10-02T09:07:53.738Z,14.10
2022-10-02T09:10:45.913Z,14.00
2022-10-02T09:13:32.226Z,14.00
2022-10-02T09:16:19.591Z,13.90
2022-10-02T09:19:01.194Z,13.90
2022-10-02T09:21:43.302Z,13.70
2022-10-02T09:24:37.931Z,13.50
2022-10-02T09:27:44.541Z,13.40
2022-10-02T09:30:50.488Z,13.30
2022-10-02T09:33:43.773Z,13.40
2022-10-02T09:36:57.505Z,13.70
2022-10-02T09:39:43.344Z,13.90
2022-10-02T09:42:45.601Z,14.20
2022-10-02T09:45:55.140Z,14.70
2022-10-02T09:49:02.844Z,15.30
2022-10-02T09:52:07.188Z,16.30
2022-10-02T09:55:05.678Z,16.40
2022-10-02T09:57:51.716Z,16.10
2022-10-02T10:00:19.178Z,15.60
2022-10-02T10:03:15.930Z,15.10
2022-10-02T10:06:28.661Z,14.50
2022-10-02T10:08:55.926Z,14.00
2022-10-02T10:11:51.289Z,13.80
2022-10-02T10:15:09.038Z,13.60
2022-10-02T10:18:10.480Z,13.40
2022-10-02T10:21:16.127Z,13.40
2022-10-02T10:24:02.068Z,13.50
2022-10-02T10:26:48.094Z,13.50
2022-10-02T10:29:40.020Z,13.70
2022-10-02T10:32:44.510Z,13.70
2022-10-02T10:35:37.843Z,13.80
2022-10-02T10:38:49.696Z,14.20
2022-10-02T10:41:38.512Z,14.70
2022-10-02T10:44:45.426Z,15.00
2022-10-02T10:48:03.410Z,15.50
2022-10-02T10:50:47.851Z,15.50
2022-10-02T10:53:24.504Z,15.10
2022-10-02T10:56:10.741Z,15.00
2022-10-02T10:59:07.876Z,15.00
2022-10-02T11:01:38.745Z,15.00
2022-10-02T11:04:42.290Z,15.20
2022-10-02T11:07:35.416Z,15.20
2022-10-02T11:10:28.004Z,15.40
2022-10-02T11:13:19.463Z,15.60
2022-10-02T11:16:07.569Z,15.90
2022-10-02T11:18:55.105Z,16.20
2022-10-02T11:22:03.684Z,16.20
2022-10-02T11:24:52.378Z,16.30
2022-10-02T11:27:57.808Z,16.60
2022-10-02T11:31:04.773Z,17.40
2022-10-02T11:34:02.908Z,17.70
2022-10-02T11:36:52.841Z,17.40
2022-10-02T11:39:43.351Z,16.60
2022-10-02T11:42:37.075Z,16.80
2022-10-02T11:45:37.306Z,16.80
2022-10-02T11:48:26.746Z,16.50
2022-10-02T11:51:13.907Z,16.50
2022-10-02T11:53:48.207Z,16.70
2022-10-02T11:56:46.203Z,16.80
2022-10-02T11:59:41.153Z,17.10
2022-10-02T12:02:16.684Z,17.20
2022-10-02T12:05:10.597Z,17.20
2022-10-02T12:07:53.385Z,17.10
2022-10-02T12:10:53.379Z,16.90
2022-10-02T12:13:43.512Z,17.20
2022-10-02T12:16:17.402Z,19.50
2022-10-02T12:19:22.748Z,21.40
2022-10-02T12:22:08.567Z,22.40
2022-10-02T12:25:10.175Z,22.40
2022-10-02T12:27:54.932Z,21.20
2022-10-02T12:30:28.308Z,20.40
2022-10-02T12:33:29.888Z,20.00
2022-10-02T12:36:21.454Z,19.50
2022-10-02T12:39:00.426Z,18.80
2022-10-02T12:41:42.616Z,19.60
2022-10-02T12:44:17.242Z,20.40
2022-10-02T12:47:23.179Z,20.60
2022-10-02T12:50:22.158Z,21.30
2022-10-02T12:53:05.259Z,21.40
2022-10-02T12:56:06.981Z,21.80
2022-10-02T12:58:56.807Z,22.90
2022-10-02T13:01:51.486Z,23.70
2022-10-02T13:04:39.305Z,24.10
2022-10-02T13:07:13.704Z,23.20
2022-10-02T13:09:49.709Z,22.30
2022-10-02T13:12:20.130Z,22.40
2022-10-02T13:15:19.194Z,22.90
2022-10-02T13:17:56.134Z,22.80
2022-10-02T13:20:40.093Z,22.00
2022-10-02T13:23:25.076Z,21.30
2022-10-02T13:25:58.902Z,20.60
2022-10-02T13:28:43.351Z,19.90
2022-10-02T13:31:19.904Z,19.70
2022-10-02T13:34:03.707Z,20.00
2022-10-02T13:36:44.033Z,20.10
2022-10-02T13:39:22.573Z,19.80
2022-10-02T13:42:09.372Z,20.30
2022-10-02T13:45:08.581Z,20.10
2022-10-02T13:48:03.991Z,19.60
2022-10-02T13:50:37.362Z,18.80
2022-10-02T13:53:26.261Z,18.10
2022-10-02T13:56:02.934Z,17.60
2022-10-02T13:58:39.672Z,17.20
2022-10-02T14:01:23.583Z,17.10
2022-10-02T14:04:30.454Z,17.90
2022-10-02T14:07:24.094Z,18.30
2022-10-02T14:10:14.979Z,19.70
2022-10-02T14:13:18.492Z,20.30
2022-10-02T14:15:56.149Z,21.20
2022-10-02T14:18:48.105Z,20.10
2022-10-02T14:21:33.437Z,19.70
2022-10-02T14:24:50.965Z,18.90
2022-10-02T14:28:06.582Z,18.00
2022-10-02T14:31:13.524Z,17.40
2022-10-02T14:33:40.878Z,16.90
2022-10-02T14:36:25.091Z,16.70
2022-10-02T14:38:52.632Z,16.50
2022-10-02T14:41:50.466Z,16.60
2022-10-02T14:44:33.182Z,16.70
2022-10-02T14:47:31.624Z,16.90
2022-10-02T14:50:12.880Z,16.80
2022-10-02T14:52:49.411Z,16.80
2022-10-02T14:55:55.197Z,16.70
2022-10-02T14:58:34.190Z,16.60
2022-10-02T15:01:10.825Z,16.40
2022-10-02T15:04:13.691Z,16.40
2022-10-02T15:06:53.172Z,16.20
2022-10-02T15:09:27.545Z,16.10
2022-10-02T15:12:08.583Z,15.70
2022-10-02T15:14:39.816Z,15.40
2022-10-02T15:17:33.932Z,15.10
2022-10-02T15:20:22.694Z,14.60
2022-10-02T15:22:59.426Z,14.20
2022-10-02T15:25:55.541Z,13.80
2022-10-02T15:28:36.303Z,13.60
2022-10-02T15:31:18.952Z,13.40
2022-10-02T15:34:13.016Z,13.10
2022-10-02T15:37:01.664Z,12.90
2022-10-02T15:39:38.071Z,12.60
2022-10-02T15:42:10.493Z,12.40
2022-10-02T15:45:11.437Z,12.10
2022-10-02T15:47:49.171Z,11.90
2022-10-02T15:50:24.664Z,11.60
2022-10-02T15:53:29.954Z,11.60
2022-10-02T15:56:35.829Z,11.50
2022-10-02T15:59:22.073Z,11.40
2022-10-02T16:02:26.605Z,11.30
2022-10-02T16:05:29.519Z,11.30
2022-10-02T16:08:25.459Z,11.20
2022-10-02T16:11:02.509Z,11.10
2022-10-02T16:13:49.746Z,11.00
2022-10-02T16:16:58.845Z,11.00
2022-10-02T16:19:52.606Z,11.00
2022-10-02T16:22:50.647Z,11.00
2022-10-02T16:25:30.376Z,10.90
2022-10-02T16:28:31.759Z,10.80
2022-10-02T16:31:28.127Z,10.90
2022-10-02T16:34:14.467Z,10.80
2022-10-02T16:36:52.537Z,10.90
2022-10-02T16:39:52.517Z,10.90
2022-10-02T16:42:20.771Z,10.90
2022-10-02T16:45:17.138Z,10.90
2022-10-02T16:48:08.021Z,10.90
2022-10-02T16:51:10.288Z,10.90
2022-10-02T16:53:58.345Z,10.80
2022-10-02T16:56:33.899Z,10.90
2022-10-02T16:59:14.944Z,10.80
2022-10-02T17:02:13.246Z,10.70
2022-10-02T17:05:02.299Z,10.70
2022-10-02T17:07:51.470Z,10.60
2022-10-02T17:10:35.686Z,10.60
2022-10-02T17:13:31.447Z,10.50
2022-10-02T17:16:25.946Z,10.50
2022-10-02T17:19:37.448Z,10.40
2022-10-02T17:22:27.135Z,10.40
2022-10-02T17:25:06.872Z,10.40
2022-10-02T17:27:34.352Z,10.30
2022-10-02T17:30:24.302Z,11.10
2022-10-02T17:33:06.988Z,10.20
2022-10-02T17:35:42.720Z,10.20
2022-10-02T17:38:24.320Z,10.20
2022-10-02T17:41:18.999Z,10.20
2022-10-02T17:44:11.557Z,10.20
2022-10-02T17:47:29.480Z,10.10
2022-10-02T17:50:21.077Z,10.20
2022-10-02T17:53:30.110Z,10.20
2022-10-02T17:56:30.705Z,10.10
2022-10-02T17:59:23.905Z,10.20
2022-10-02T18:02:23.044Z,10.10
2022-10-02T18:05:12.873Z,10.10
2022-10-02T18:08:08.742Z,10.10
2022-10-02T18:10:57.564Z,10.00
2022-10-02T18:13:59.584Z,10.00
2022-10-02T18:16:41.509Z,10.00
2022-10-02T18:19:24.628Z,10.00
2022-10-02T18:22:23.362Z,10.00
2022-10-02T18:25:38.267Z,9.90
2022-10-02T18:28:47.497Z,9.90
2022-10-02T18:31:55.905Z,9.90
2022-10-02T18:35:01.444Z,9.90
2022-10-02T18:37:57.472Z,9.90
2022-10-02T18:40:29.711Z,9.90
2022-10-02T18:43:18.665Z,9.90
2022-10-02T18:46:02.871Z,9.80
2022-10-02T18:49:02.128Z,9.80
2022-10-02T18:51:48.876Z,9.80
2022-10-02T18:54:44.213Z,9.80
2022-10-02T18:57:24.654Z,9.70
2022-10-02T19:00:12.905Z,9.80
2022-10-02T19:02:51.909Z,9.70
2022-10-02T19:05:23.719Z,9.60
2022-10-02T19:08:06.241Z,9.60
2022-10-02T19:10:34.019Z,9.60
2022-10-02T19:13:18.073Z,9.60
2022-10-02T19:15:48.689Z,9.60
2022-10-02T19:18:16.181Z,9.50
2022-10-02T19:21:12.345Z,9.50
2022-10-02T19:23:57.412Z,9.50
2022-10-02T19:26:28.146Z,9.40
2022-10-02T19:29:08.453Z,9.40
2022-10-02T19:31:41.860Z,9.40
2022-10-02T19:34:21.080Z,9.40
2022-10-02T19:36:52.291Z,9.40
2022-10-02T19:39:26.204Z,9.30
2022-10-02T19:41:57.741Z,9.40
2022-10-02T19:44:59.512Z,10.30
2022-10-02T19:47:38.252Z,9.40
2022-10-02T19:50:08.127Z,9.30
2022-10-02T19:52:43.650Z,9.30
2022-10-02T19:55:31.807Z,9.30
2022-10-02T19:58:14.508Z,9.30
2022-10-02T20:00:43.408Z,9.20
2022-10-02T20:03:23.606Z,9.20
2022-10-02T20:06:00.408Z,9.20
2022-10-02T20:08:37.193Z,9.20
2022-10-02T20:11:41.835Z,9.20
2022-10-02T20:14:25.535Z,9.20
2022-10-02T20:17:12.913Z,9.20
2022-10-02T20:19:57.920Z,9.20
2022-10-02T20:22:37.552Z,9.20
2022-10-02T20:25:30.344Z,9.30
2022-10-02T20:28:20.015Z,9.20
2022-10-02T20:31:12.610Z,9.20
2022-10-02T20:34:01.716Z,9.20
2022-10-02T20:36:39.547Z,9.20
2022-10-02T20:39:20.286Z,9.20
2022-10-02T20:41:55.075Z,9.20
2022-10-02T20:44:22.850Z,9.20
2022-10-02T20:47:02.359Z,9.20
2022-10-02T20:49:59.628Z,9.20
2022-10-02T20:52:49.213Z,9.20
2022-10-02T20:55:27.427Z,9.20
2022-10-02T20:58:04.245Z,9.20
2022-10-02T21:01:14.967Z,9.20
2022-10-02T21:03:57.678Z,9.10
2022-10-02T21:07:06.822Z,9.10
2022-10-02T21:10:08.568Z,9.10
2022-10-02T21:12:50.921Z,9.00
2022-10-02T21:15:18.135Z,9.10
2022-10-02T21:18:10.177Z,9.10
2022-10-02T21:21:06.473Z,9.10
2022-10-02T21:23:46.175Z,9.00
2022-10-02T21:26:50.336Z,9.00
2022-10-02T21:29:53.987Z,9.00
2022-10-02T21:32:30.886Z,9.00
2022-10-02T21:35:16.577Z,8.90
2022-10-02T21:38:01.161Z,8.90
2022-10-02T21:40:56.160Z,8.90
2022-10-02T21:43:41.563Z,8.90
2022-10-02T21:46:27.613Z,8.90
2022-10-02T21:49:28.071Z,8.90
2022-10-02T21:52:20.353Z,8.90
2022-10-02T21:55:11.084Z,8.90
2022-10-02T21:58:16.138Z,9.00
2022-10-02T22:00:59.536Z,9.00
2022-10-02T22:04:08.215Z,9.00
2022-10-02T22:06:54.526Z,9.00
2022-10-02T22:09:42.178Z,9.00
2022-10-02T22:12:18.942Z,8.90
2022-10-02T22:14:51.902Z,8.90
2022-10-02T22:17:54.129Z,8.90
2022-10-02T22:20:35.718Z,9.00
2022-10-02T22:23:26.411Z,9.00
2022-10-02T22:26:09.964Z,9.10
2022-10-02T22:28:50.655Z,9.10
2022-10-02T22:31:45.069Z,9.00
2022-10-02T22:34:22.537Z,9.10
2022-10-02T22:37:21.859Z,9.10
2022-10-02T22:40:02.296Z,9.20
2022-10-02T22:43:00.410Z,9.10
2022-10-02T22:45:54.116Z,9.10
2022-10-02T22:48:35.310Z,9.10
2022-10-02T22:51:21.915Z,9.10
2022-10-02T22:54:20.411Z,9.10
2022-10-02T22:57:01.539Z,9.10
2022-10-02T22:59:36.656Z,9.10
2022-10-02T23:02:29.109Z,9.10
2022-10-02T23:05:10.019Z,9.10
2022-10-02T23:07:50.832Z,9.10
2022-10-02T23:10:25.866Z,9.20
2022-10-02T23:12:58.290Z,9.10
2022-10-02T23:15:28.354Z,9.20
2022-10-02T23:18:05.216Z,9.30
2022-10-02T23:20:45.138Z,9.30
2022-10-02T23:23:24.023Z,9.40
2022-10-02T23:26:01.737Z,9.40
2022-10-02T23:28:36.657Z,9.50
2022-10-02T23:31:32.171Z,9.60
2022-10-02T23:34:34.696Z,9.60
2022-10-02T23:37:15.998Z,9.70
2022-10-02T23:40:13.922Z,9.60
2022-10-02T23:42:53.707Z,9.60
2022-10-02T23:45:39.131Z,9.70
2022-10-02T23:48:12.374Z,9.60
2022-10-02T23:50:59.271Z,9.70
2022-10-02T23:53:58.203Z,9.60
2022-10-02T23:56:50.037Z,9.70
2022-10-02T23:59:40.504Z,9.70
